Rockwood, Michigan
Current Conditions -  °F | °C
As of 11:54 PM on Monday 20 Oct 2014 (Local Time) from KONZ Reporting Station
Overcast Overcast  
Wind Chill: 54°   Ceiling: 3300
Heat Index: 54°   Visibility: 7mi
Dew Point: 50°   Wind: 6mph
Humidity: 88%   Direction: 330°NNW
Pressure: 29.85"   Gusts: NA
Location:  42.07°N, 83.25°W
Report Text: KONZ 210354Z AUTO 33005KT 7SM BKN033 OVC042 12/10 A2985 RMK AO2
Loading
Personal Weather Stations






























Interactive Weather Map
Tropical Storm Tracking
New forecast layout! Learn more

10-Day Weather Forecast

Advertisements
Track Severe Weather on mobile